sensor_id;sensor_type;location;lat;lon;timestamp;pressure;altitude;pressure_sealevel;temperature;humidity
77077;BME280;66003;52.286;104.306;2024-01-15T00:02:08;95980.47;;;-12.39;43.99
77077;BME280;66003;52.286;104.306;2024-01-15T00:04:38;95969.63;;;-12.22;43.63
77077;BME280;66003;52.286;104.306;2024-01-15T00:07:05;95971.41;;;-12.22;43.66
77077;BME280;66003;52.286;104.306;2024-01-15T00:09:50;95957.06;;;-12.39;44.08
77077;BME280;66003;52.286;104.306;2024-01-15T00:12:16;95956.69;;;-12.36;44.38
77077;BME280;66003;52.286;104.306;2024-01-15T00:14:42;95939.16;;;-12.49;44.31
77077;BME280;66003;52.286;104.306;2024-01-15T00:17:08;95947.97;;;-12.22;44.05
77077;BME280;66003;52.286;104.306;2024-01-15T00:19:34;95965.84;;;-12.13;43.87
77077;BME280;66003;52.286;104.306;2024-01-15T00:22:19;95992.63;;;-12.25;44.33
77077;BME280;66003;52.286;104.306;2024-01-15T00:25:04;95994.47;;;-12.19;44.40
77077;BME280;66003;52.286;104.306;2024-01-15T00:27:30;95983.66;;;-12.16;44.13
77077;BME280;66003;52.286;104.306;2024-01-15T00:29:56;95986.03;;;-12.21;44.49
77077;BME280;66003;52.286;104.306;2024-01-15T00:32:22;95993.09;;;-12.15;44.10
77077;BME280;66003;52.286;104.306;2024-01-15T00:34:48;95988.47;;;-12.20;44.79
77077;BME280;66003;52.286;104.306;2024-01-15T00:37:15;95979.63;;;-12.19;44.00
77077;BME280;66003;52.286;104.306;2024-01-15T00:39:42;95974.28;;;-12.11;44.33
77077;BME280;66003;52.286;104.306;2024-01-15T00:42:08;95975.22;;;-12.18;44.30
77077;BME280;66003;52.286;104.306;2024-01-15T00:44:34;95974.84;;;-12.15;44.34
77077;BME280;66003;52.286;104.306;2024-01-15T00:47:00;95971.13;;;-12.34;44.38
77077;BME280;66003;52.286;104.306;2024-01-15T00:49:27;95951.75;;;-12.25;44.57
77077;BME280;66003;52.286;104.306;2024-01-15T00:51:54;95918.72;;;-12.24;44.39
77077;BME280;66003;52.286;104.306;2024-01-15T00:54:20;95910.25;;;-12.33;44.80
77077;BME280;66003;52.286;104.306;2024-01-15T00:56:46;95899.88;;;-12.26;44.12
77077;BME280;66003;52.286;104.306;2024-01-15T00:59:12;95912.78;;;-12.12;44.31
77077;BME280;66003;52.286;104.306;2024-01-15T01:01:41;95903.59;;;-12.07;43.88
77077;BME280;66003;52.286;104.306;2024-01-15T01:04:12;95900.09;;;-11.80;43.54
77077;BME280;66003;52.286;104.306;2024-01-15T01:06:39;95902.31;;;-11.77;43.40
77077;BME280;66003;52.286;104.306;2024-01-15T01:09:05;95897.91;;;-11.77;42.82
77077;BME280;66003;52.286;104.306;2024-01-15T01:11:31;95883.13;;;-12.11;43.59
77077;BME280;66003;52.286;104.306;2024-01-15T01:13:57;95863.72;;;-12.01;43.68
77077;BME280;66003;52.286;104.306;2024-01-15T01:16:24;95919.78;;;-12.12;43.77
77077;BME280;66003;52.286;104.306;2024-01-15T01:18:50;95904.69;;;-11.82;43.53
77077;BME280;66003;52.286;104.306;2024-01-15T01:21:16;95924.03;;;-11.63;42.86
77077;BME280;66003;52.286;104.306;2024-01-15T01:23:42;95903.44;;;-11.52;42.80
77077;BME280;66003;52.286;104.306;2024-01-15T01:26:09;95894.63;;;-11.44;43.31
77077;BME280;66003;52.286;104.306;2024-01-15T01:28:35;95902.16;;;-10.82;42.13
77077;BME280;66003;52.286;104.306;2024-01-15T01:31:20;95908.78;;;-10.33;42.01
77077;BME280;66003;52.286;104.306;2024-01-15T01:33:46;95925.63;;;-9.96;41.30
77077;BME280;66003;52.286;104.306;2024-01-15T01:36:12;95910.22;;;-9.66;40.00
77077;BME280;66003;52.286;104.306;2024-01-15T01:38:40;95900.16;;;-9.18;39.67
77077;BME280;66003;52.286;104.306;2024-01-15T01:41:06;95873.81;;;-8.92;38.93
77077;BME280;66003;52.286;104.306;2024-01-15T01:43:33;95873.72;;;-8.54;39.41
77077;BME280;66003;52.286;104.306;2024-01-15T01:46:00;95885.41;;;-8.06;39.05
77077;BME280;66003;52.286;104.306;2024-01-15T01:48:27;95888.44;;;-7.55;38.02
77077;BME280;66003;52.286;104.306;2024-01-15T01:50:55;95892.13;;;-7.26;35.11
77077;BME280;66003;52.286;104.306;2024-01-15T01:53:24;95879.97;;;-6.79;37.23
77077;BME280;66003;52.286;104.306;2024-01-15T01:55:51;95872.72;;;-6.42;35.74
77077;BME280;66003;52.286;104.306;2024-01-15T01:58:19;95878.28;;;-5.92;35.07
77077;BME280;66003;52.286;104.306;2024-01-15T02:00:46;95863.19;;;-5.84;31.97
77077;BME280;66003;52.286;104.306;2024-01-15T02:03:31;95858.78;;;-5.56;34.89
77077;BME280;66003;52.286;104.306;2024-01-15T02:05:59;95859.41;;;-5.37;33.21
77077;BME280;66003;52.286;104.306;2024-01-15T02:08:26;95856.41;;;-4.84;33.79
77077;BME280;66003;52.286;104.306;2024-01-15T02:10:52;95863.72;;;-4.40;33.65
77077;BME280;66003;52.286;104.306;2024-01-15T02:13:20;95873.53;;;-4.36;31.95
77077;BME280;66003;52.286;104.306;2024-01-15T02:15:46;95875.22;;;-4.13;29.66
77077;BME280;66003;52.286;104.306;2024-01-15T02:18:13;95884.00;;;-3.69;32.26
77077;BME280;66003;52.286;104.306;2024-01-15T02:20:39;95868.00;;;-3.62;30.66
77077;BME280;66003;52.286;104.306;2024-01-15T02:23:09;95876.19;;;-3.81;29.57
77077;BME280;66003;52.286;104.306;2024-01-15T02:25:45;95856.53;;;-4.45;30.05
77077;BME280;66003;52.286;104.306;2024-01-15T02:28:16;95850.75;;;-4.92;31.33
77077;BME280;66003;52.286;104.306;2024-01-15T02:30:44;95847.94;;;-5.31;31.69
77077;BME280;66003;52.286;104.306;2024-01-15T02:33:11;95839.59;;;-5.39;32.01
77077;BME280;66003;52.286;104.306;2024-01-15T02:35:38;95824.56;;;-5.67;31.30
77077;BME280;66003;52.286;104.306;2024-01-15T02:38:05;95810.88;;;-5.41;32.19
77077;BME280;66003;52.286;104.306;2024-01-15T02:40:32;95829.44;;;-5.87;30.89
77077;BME280;66003;52.286;104.306;2024-01-15T02:42:58;95824.66;;;-6.02;31.63
77077;BME280;66003;52.286;104.306;2024-01-15T02:45:25;95813.34;;;-6.03;32.32
77077;BME280;66003;52.286;104.306;2024-01-15T02:47:51;95810.97;;;-6.28;31.73
77077;BME280;66003;52.286;104.306;2024-01-15T02:50:19;95808.22;;;-6.33;31.56
77077;BME280;66003;52.286;104.306;2024-01-15T02:52:45;95819.66;;;-6.50;31.49
77077;BME280;66003;52.286;104.306;2024-01-15T02:55:11;95827.63;;;-6.92;31.71
77077;BME280;66003;52.286;104.306;2024-01-15T02:57:37;95810.66;;;-7.08;32.44
77077;BME280;66003;52.286;104.306;2024-01-15T03:00:04;95810.66;;;-7.08;31.89
77077;BME280;66003;52.286;104.306;2024-01-15T03:02:31;95807.66;;;-7.23;32.35
77077;BME280;66003;52.286;104.306;2024-01-15T03:04:57;95791.56;;;-7.56;33.01
77077;BME280;66003;52.286;104.306;2024-01-15T03:07:24;95774.16;;;-7.99;33.34
77077;BME280;66003;52.286;104.306;2024-01-15T03:09:50;95776.31;;;-8.07;33.76
77077;BME280;66003;52.286;104.306;2024-01-15T03:12:16;95801.19;;;-8.35;34.39
77077;BME280;66003;52.286;104.306;2024-01-15T03:14:43;95759.84;;;-8.33;34.93
77077;BME280;66003;52.286;104.306;2024-01-15T03:17:10;95771.63;;;-8.24;34.71
77077;BME280;66003;52.286;104.306;2024-01-15T03:19:37;95766.88;;;-7.97;34.73
77077;BME280;66003;52.286;104.306;2024-01-15T03:22:03;95764.78;;;-8.06;34.61
77077;BME280;66003;52.286;104.306;2024-01-15T03:24:31;95756.41;;;-7.97;34.98
77077;BME280;66003;52.286;104.306;2024-01-15T03:26:58;95748.59;;;-7.85;34.49
77077;BME280;66003;52.286;104.306;2024-01-15T03:29:24;95794.47;;;-7.94;33.86
77077;BME280;66003;52.286;104.306;2024-01-15T03:31:50;95788.16;;;-7.57;34.23
77077;BME280;66003;52.286;104.306;2024-01-15T03:34:16;95795.63;;;-7.42;34.26
77077;BME280;66003;52.286;104.306;2024-01-15T03:36:42;95763.50;;;-7.56;33.41
77077;BME280;66003;52.286;104.306;2024-01-15T03:39:08;95770.28;;;-7.48;34.01
77077;BME280;66003;52.286;104.306;2024-01-15T03:41:53;95762.34;;;-7.30;33.27
77077;BME280;66003;52.286;104.306;2024-01-15T03:44:19;95739.06;;;-7.68;33.97
77077;BME280;66003;52.286;104.306;2024-01-15T03:46:45;95737.22;;;-7.67;33.92
77077;BME280;66003;52.286;104.306;2024-01-15T03:49:11;95723.88;;;-7.36;33.86
77077;BME280;66003;52.286;104.306;2024-01-15T03:51:37;95745.63;;;-7.47;34.63
77077;BME280;66003;52.286;104.306;2024-01-15T03:56:48;95747.00;;;-7.45;33.58
77077;BME280;66003;52.286;104.306;2024-01-15T03:59:14;95735.34;;;-7.60;34.96
77077;BME280;66003;52.286;104.306;2024-01-15T04:01:40;95750.66;;;-7.76;34.95
77077;BME280;66003;52.286;104.306;2024-01-15T04:04:07;95714.88;;;-7.70;34.95
77077;BME280;66003;52.286;104.306;2024-01-15T04:06:33;95705.81;;;-7.86;35.67
77077;BME280;66003;52.286;104.306;2024-01-15T04:08:59;95723.28;;;-7.80;35.48
77077;BME280;66003;52.286;104.306;2024-01-15T04:11:25;95743.47;;;-7.50;35.53
77077;BME280;66003;52.286;104.306;2024-01-15T04:13:51;95782.41;;;-7.65;35.26
77077;BME280;66003;52.286;104.306;2024-01-15T04:16:17;95773.19;;;-7.26;34.88
77077;BME280;66003;52.286;104.306;2024-01-15T04:18:44;95774.38;;;-7.52;34.65
77077;BME280;66003;52.286;104.306;2024-01-15T04:21:10;95775.00;;;-7.39;35.22
77077;BME280;66003;52.286;104.306;2024-01-15T04:23:36;95762.34;;;-7.30;35.21
77077;BME280;66003;52.286;104.306;2024-01-15T04:26:02;95748.72;;;-7.50;35.42
77077;BME280;66003;52.286;104.306;2024-01-15T04:28:28;95748.22;;;-7.59;35.65
77077;BME280;66003;52.286;104.306;2024-01-15T04:30:54;95756.63;;;-7.39;35.43
77077;BME280;66003;52.286;104.306;2024-01-15T04:33:21;95753.06;;;-7.44;36.16
77077;BME280;66003;52.286;104.306;2024-01-15T04:35:47;95747.19;;;-7.58;35.41
77077;BME280;66003;52.286;104.306;2024-01-15T04:38:13;95748.50;;;-7.49;35.76
77077;BME280;66003;52.286;104.306;2024-01-15T04:40:39;95730.63;;;-7.58;35.85
77077;BME280;66003;52.286;104.306;2024-01-15T04:43:05;95741.53;;;-7.43;35.71
77077;BME280;66003;52.286;104.306;2024-01-15T04:45:31;95723.06;;;-7.48;36.12
77077;BME280;66003;52.286;104.306;2024-01-15T04:47:58;95741.72;;;-7.56;36.47
77077;BME280;66003;52.286;104.306;2024-01-15T04:50:24;95726.13;;;-7.51;35.71
77077;BME280;66003;52.286;104.306;2024-01-15T04:53:09;95711.41;;;-7.52;36.03
77077;BME280;66003;52.286;104.306;2024-01-15T04:55:37;95727.47;;;-7.60;36.01
77077;BME280;66003;52.286;104.306;2024-01-15T04:58:03;95733.19;;;-7.52;35.73
77077;BME280;66003;52.286;104.306;2024-01-15T05:00:29;95744.94;;;-7.43;35.33
77077;BME280;66003;52.286;104.306;2024-01-15T05:02:55;95768.81;;;-7.32;35.87
77077;BME280;66003;52.286;104.306;2024-01-15T05:05:22;95783.56;;;-7.31;35.57
77077;BME280;66003;52.286;104.306;2024-01-15T05:07:48;95764.31;;;-7.14;35.44
77077;BME280;66003;52.286;104.306;2024-01-15T05:10:15;95760.88;;;-7.26;35.35
77077;BME280;66003;52.286;104.306;2024-01-15T05:12:41;95790.75;;;-7.39;35.42
77077;BME280;66003;52.286;104.306;2024-01-15T05:15:07;95800.47;;;-7.27;35.66
77077;BME280;66003;52.286;104.306;2024-01-15T05:17:34;95791.94;;;-7.11;35.33
77077;BME280;66003;52.286;104.306;2024-01-15T05:20:00;95810.88;;;-7.09;35.54
77077;BME280;66003;52.286;104.306;2024-01-15T05:22:26;95831.69;;;-7.08;35.44
77077;BME280;66003;52.286;104.306;2024-01-15T05:24:52;95810.19;;;-7.16;35.16
77077;BME280;66003;52.286;104.306;2024-01-15T05:27:18;95806.22;;;-7.07;35.07
77077;BME280;66003;52.286;104.306;2024-01-15T05:29:44;95821.91;;;-6.89;35.45
77077;BME280;66003;52.286;104.306;2024-01-15T05:32:10;95830.94;;;-6.85;35.17
77077;BME280;66003;52.286;104.306;2024-01-15T05:34:37;95829.09;;;-6.84;35.40
77077;BME280;66003;52.286;104.306;2024-01-15T05:37:03;95840.56;;;-6.79;35.26
77077;BME280;66003;52.286;104.306;2024-01-15T05:39:48;95850.28;;;-6.68;35.35
77077;BME280;66003;52.286;104.306;2024-01-15T05:42:14;95842.16;;;-6.66;35.00
77077;BME280;66003;52.286;104.306;2024-01-15T05:44:40;95858.38;;;-6.69;34.83
77077;BME280;66003;52.286;104.306;2024-01-15T05:47:07;95885.28;;;-6.44;34.75
77077;BME280;66003;52.286;104.306;2024-01-15T05:49:33;95872.81;;;-6.25;34.58
77077;BME280;66003;52.286;104.306;2024-01-15T05:51:59;95878.78;;;-6.18;34.24
77077;BME280;66003;52.286;104.306;2024-01-15T05:54:25;95911.59;;;-6.09;34.31
77077;BME280;66003;52.286;104.306;2024-01-15T05:56:52;95917.88;;;-6.10;34.00
77077;BME280;66003;52.286;104.306;2024-01-15T05:59:18;95931.47;;;-6.13;34.38
77077;BME280;66003;52.286;104.306;2024-01-15T06:01:44;95956.19;;;-6.02;34.28
77077;BME280;66003;52.286;104.306;2024-01-15T06:04:10;95952.50;;;-6.13;34.02
77077;BME280;66003;52.286;104.306;2024-01-15T06:06:55;95952.63;;;-6.19;34.76
77077;BME280;66003;52.286;104.306;2024-01-15T06:09:21;95944.78;;;-6.49;34.01
77077;BME280;66003;52.286;104.306;2024-01-15T06:11:47;95965.84;;;-6.38;34.57
77077;BME280;66003;52.286;104.306;2024-01-15T06:14:14;95972.72;;;-6.37;34.54
77077;BME280;66003;52.286;104.306;2024-01-15T06:16:40;96036.00;;;-6.20;35.32
77077;BME280;66003;52.286;104.306;2024-01-15T06:19:06;96070.75;;;-6.18;34.02
77077;BME280;66003;52.286;104.306;2024-01-15T06:21:32;96079.03;;;-6.03;33.87
77077;BME280;66003;52.286;104.306;2024-01-15T06:24:17;96098.00;;;-5.71;33.78
77077;BME280;66003;52.286;104.306;2024-01-15T06:26:48;96117.13;;;-5.40;33.96
77077;BME280;66003;52.286;104.306;2024-01-15T06:29:14;96087.50;;;-5.36;33.52
77077;BME280;66003;52.286;104.306;2024-01-15T06:31:40;96097.78;;;-5.46;33.09
77077;BME280;66003;52.286;104.306;2024-01-15T06:34:06;96118.84;;;-5.34;33.15
77077;BME280;66003;52.286;104.306;2024-01-15T06:36:33;96124.03;;;-5.28;33.18
77077;BME280;66003;52.286;104.306;2024-01-15T06:38:59;96118.06;;;-5.23;33.05
77077;BME280;66003;52.286;104.306;2024-01-15T06:41:25;96123.09;;;-5.10;33.45
77077;BME280;66003;52.286;104.306;2024-01-15T06:43:51;96132.59;;;-5.09;33.92
77077;BME280;66003;52.286;104.306;2024-01-15T06:46:21;96158.28;;;-5.04;33.63
77077;BME280;66003;52.286;104.306;2024-01-15T06:48:48;96172.25;;;-5.04;33.57
77077;BME280;66003;52.286;104.306;2024-01-15T06:51:15;96190.34;;;-4.96;34.52
77077;BME280;66003;52.286;104.306;2024-01-15T06:53:42;96195.84;;;-4.97;34.50
77077;BME280;66003;52.286;104.306;2024-01-15T06:56:08;96210.75;;;-4.91;34.58
77077;BME280;66003;52.286;104.306;2024-01-15T06:58:34;96225.41;;;-4.95;34.26
77077;BME280;66003;52.286;104.306;2024-01-15T07:01:01;96263.56;;;-4.98;32.64
77077;BME280;66003;52.286;104.306;2024-01-15T07:03:27;96238.59;;;-4.95;33.33
77077;BME280;66003;52.286;104.306;2024-01-15T07:05:54;96264.28;;;-4.91;32.82
77077;BME280;66003;52.286;104.306;2024-01-15T07:08:20;96292.47;;;-4.79;32.37
77077;BME280;66003;52.286;104.306;2024-01-15T07:10:46;96298.66;;;-4.74;32.64
77077;BME280;66003;52.286;104.306;2024-01-15T07:13:12;96309.94;;;-4.67;32.08
77077;BME280;66003;52.286;104.306;2024-01-15T07:15:38;96320.81;;;-4.63;32.13
77077;BME280;66003;52.286;104.306;2024-01-15T07:18:05;96325.41;;;-4.59;31.68
77077;BME280;66003;52.286;104.306;2024-01-15T07:20:31;96346.75;;;-4.49;33.04
77077;BME280;66003;52.286;104.306;2024-01-15T07:22:57;96348.34;;;-4.59;32.22
77077;BME280;66003;52.286;104.306;2024-01-15T07:25:23;96358.75;;;-4.76;31.92
77077;BME280;66003;52.286;104.306;2024-01-15T07:27:52;96364.56;;;-4.74;32.59
77077;BME280;66003;52.286;104.306;2024-01-15T07:30:20;96396.06;;;-4.91;32.30
77077;BME280;66003;52.286;104.306;2024-01-15T07:32:48;96397.41;;;-5.00;31.80
77077;BME280;66003;52.286;104.306;2024-01-15T07:35:14;96425.00;;;-5.02;32.36
77077;BME280;66003;52.286;104.306;2024-01-15T07:37:41;96434.59;;;-5.08;32.27
77077;BME280;66003;52.286;104.306;2024-01-15T07:40:07;96440.28;;;-5.11;32.18
77077;BME280;66003;52.286;104.306;2024-01-15T07:42:34;96468.94;;;-5.14;32.33
77077;BME280;66003;52.286;104.306;2024-01-15T07:45:01;96479.75;;;-5.23;32.48
77077;BME280;66003;52.286;104.306;2024-01-15T07:47:28;96487.94;;;-5.31;32.28
77077;BME280;66003;52.286;104.306;2024-01-15T07:49:54;96510.47;;;-5.35;32.60
77077;BME280;66003;52.286;104.306;2024-01-15T07:52:21;96514.72;;;-5.52;32.49
77077;BME280;66003;52.286;104.306;2024-01-15T07:54:47;96530.09;;;-5.49;33.31
77077;BME280;66003;52.286;104.306;2024-01-15T07:57:13;96538.69;;;-5.60;32.90
77077;BME280;66003;52.286;104.306;2024-01-15T07:59:40;96563.09;;;-5.71;33.18
77077;BME280;66003;52.286;104.306;2024-01-15T08:02:06;96568.38;;;-5.78;33.77
77077;BME280;66003;52.286;104.306;2024-01-15T08:04:32;96570.88;;;-5.83;34.08
77077;BME280;66003;52.286;104.306;2024-01-15T08:06:58;96573.59;;;-5.96;32.96
77077;BME280;66003;52.286;104.306;2024-01-15T08:09:24;96584.34;;;-6.04;33.28
77077;BME280;66003;52.286;104.306;2024-01-15T08:11:50;96582.38;;;-6.09;33.60
77077;BME280;66003;52.286;104.306;2024-01-15T08:14:17;96604.09;;;-6.20;33.89
77077;BME280;66003;52.286;104.306;2024-01-15T08:16:44;96621.66;;;-6.14;33.66
77077;BME280;66003;52.286;104.306;2024-01-15T08:19:10;96612.59;;;-6.24;33.15
77077;BME280;66003;52.286;104.306;2024-01-15T08:21:36;96627.97;;;-6.21;33.66
77077;BME280;66003;52.286;104.306;2024-01-15T08:24:03;96634.56;;;-6.50;33.92
77077;BME280;66003;52.286;104.306;2024-01-15T08:26:29;96645.28;;;-6.52;33.96
77077;BME280;66003;52.286;104.306;2024-01-15T08:28:55;96658.25;;;-6.64;33.60
77077;BME280;66003;52.286;104.306;2024-01-15T08:31:22;96661.91;;;-6.65;33.59
77077;BME280;66003;52.286;104.306;2024-01-15T08:33:48;96670.81;;;-6.66;33.46
77077;BME280;66003;52.286;104.306;2024-01-15T08:36:15;96679.28;;;-6.57;34.09
77077;BME280;66003;52.286;104.306;2024-01-15T08:38:41;96682.31;;;-6.60;33.89
77077;BME280;66003;52.286;104.306;2024-01-15T08:41:08;96693.63;;;-6.53;34.06
77077;BME280;66003;52.286;104.306;2024-01-15T08:43:35;96694.84;;;-6.55;33.69
77077;BME280;66003;52.286;104.306;2024-01-15T08:46:02;96707.97;;;-6.49;33.91
77077;BME280;66003;52.286;104.306;2024-01-15T08:48:28;96704.16;;;-6.59;33.66
77077;BME280;66003;52.286;104.306;2024-01-15T08:50:55;96700.53;;;-6.65;33.79
77077;BME280;66003;52.286;104.306;2024-01-15T08:53:22;96700.75;;;-6.73;34.04
77077;BME280;66003;52.286;104.306;2024-01-15T08:55:48;96704.81;;;-6.84;34.69
77077;BME280;66003;52.286;104.306;2024-01-15T08:58:15;96718.94;;;-6.85;35.07
77077;BME280;66003;52.286;104.306;2024-01-15T09:00:42;96740.38;;;-6.94;34.60
77077;BME280;66003;52.286;104.306;2024-01-15T09:03:08;96738.97;;;-7.10;34.55
77077;BME280;66003;52.286;104.306;2024-01-15T09:05:35;96756.94;;;-7.20;34.65
77077;BME280;66003;52.286;104.306;2024-01-15T09:08:01;96762.19;;;-7.27;34.87
77077;BME280;66003;52.286;104.306;2024-01-15T09:10:27;96767.63;;;-7.42;34.98
77077;BME280;66003;52.286;104.306;2024-01-15T09:12:53;96772.22;;;-7.57;35.69
77077;BME280;66003;52.286;104.306;2024-01-15T09:15:19;96782.06;;;-7.79;34.91
77077;BME280;66003;52.286;104.306;2024-01-15T09:17:46;96787.50;;;-7.80;35.21
77077;BME280;66003;52.286;104.306;2024-01-15T09:20:21;96790.47;;;-7.90;35.03
77077;BME280;66003;52.286;104.306;2024-01-15T09:22:48;96801.91;;;-8.11;35.27
77077;BME280;66003;52.286;104.306;2024-01-15T09:25:14;96805.06;;;-8.22;35.56
77077;BME280;66003;52.286;104.306;2024-01-15T09:27:40;96807.91;;;-8.17;35.36
77077;BME280;66003;52.286;104.306;2024-01-15T09:30:07;96816.63;;;-8.10;35.61
77077;BME280;66003;52.286;104.306;2024-01-15T09:32:34;96819.81;;;-8.14;35.88
77077;BME280;66003;52.286;104.306;2024-01-15T09:35:00;96835.19;;;-8.04;35.74
77077;BME280;66003;52.286;104.306;2024-01-15T09:37:26;96843.50;;;-8.01;36.00
77077;BME280;66003;52.286;104.306;2024-01-15T09:39:52;96841.38;;;-7.84;36.46
77077;BME280;66003;52.286;104.306;2024-01-15T09:42:19;96835.13;;;-7.83;35.79
77077;BME280;66003;52.286;104.306;2024-01-15T09:44:46;96860.19;;;-7.74;35.53
77077;BME280;66003;52.286;104.306;2024-01-15T09:47:12;96856.75;;;-7.75;34.79
77077;BME280;66003;52.286;104.306;2024-01-15T09:49:39;96860.38;;;-7.76;35.32
77077;BME280;66003;52.286;104.306;2024-01-15T09:52:07;96876.75;;;-7.74;35.46
77077;BME280;66003;52.286;104.306;2024-01-15T09:54:33;96874.75;;;-7.71;35.17
77077;BME280;66003;52.286;104.306;2024-01-15T09:57:01;96881.19;;;-7.67;35.32
77077;BME280;66003;52.286;104.306;2024-01-15T09:59:28;96883.25;;;-7.56;35.25
77077;BME280;66003;52.286;104.306;2024-01-15T10:02:28;96895.22;;;-7.47;34.84
77077;BME280;66003;52.286;104.306;2024-01-15T10:05:18;96907.81;;;-7.36;34.67
77077;BME280;66003;52.286;104.306;2024-01-15T10:07:51;96905.44;;;-7.11;34.62
77077;BME280;66003;52.286;104.306;2024-01-15T10:10:19;96895.53;;;-7.09;34.38
77077;BME280;66003;52.286;104.306;2024-01-15T10:12:45;96901.03;;;-6.97;33.97
77077;BME280;66003;52.286;104.306;2024-01-15T10:15:12;96916.41;;;-6.88;34.30
77077;BME280;66003;52.286;104.306;2024-01-15T10:17:40;96927.97;;;-6.76;34.31
77077;BME280;66003;52.286;104.306;2024-01-15T10:20:14;96928.19;;;-6.64;33.92
77077;BME280;66003;52.286;104.306;2024-01-15T10:22:53;96931.63;;;-6.64;33.97
77077;BME280;66003;52.286;104.306;2024-01-15T10:25:21;96929.59;;;-6.81;33.65
77077;BME280;66003;52.286;104.306;2024-01-15T10:28:28;96926.25;;;-7.10;33.53
77077;BME280;66003;52.286;104.306;2024-01-15T10:31:00;96938.94;;;-7.20;34.05
77077;BME280;66003;52.286;104.306;2024-01-15T10:33:26;96951.22;;;-7.33;34.56
77077;BME280;66003;52.286;104.306;2024-01-15T10:36:00;96962.28;;;-7.45;34.53
77077;BME280;66003;52.286;104.306;2024-01-15T10:38:26;96981.66;;;-7.46;34.25
77077;BME280;66003;52.286;104.306;2024-01-15T10:41:02;96980.09;;;-7.33;34.95
77077;BME280;66003;52.286;104.306;2024-01-15T10:43:32;96984.78;;;-7.29;35.40
77077;BME280;66003;52.286;104.306;2024-01-15T10:45:59;96981.50;;;-7.38;34.65
77077;BME280;66003;52.286;104.306;2024-01-15T10:48:26;96992.56;;;-7.42;35.06
77077;BME280;66003;52.286;104.306;2024-01-15T10:50:54;96997.25;;;-7.38;34.70
77077;BME280;66003;52.286;104.306;2024-01-15T10:53:20;97000.84;;;-7.45;34.48
77077;BME280;66003;52.286;104.306;2024-01-15T10:55:47;97006.91;;;-7.45;34.54
77077;BME280;66003;52.286;104.306;2024-01-15T10:58:18;97009.94;;;-7.41;34.43
77077;BME280;66003;52.286;104.306;2024-01-15T11:00:44;97018.84;;;-7.42;34.43
77077;BME280;66003;52.286;104.306;2024-01-15T11:03:11;97010.16;;;-7.43;34.20
77077;BME280;66003;52.286;104.306;2024-01-15T11:05:44;97022.69;;;-7.38;34.43
77077;BME280;66003;52.286;104.306;2024-01-15T11:08:22;97026.78;;;-7.29;34.25
77077;BME280;66003;52.286;104.306;2024-01-15T11:10:52;97026.25;;;-7.18;34.41
77077;BME280;66003;52.286;104.306;2024-01-15T11:18:35;97034.41;;;-7.00;33.91
77077;BME280;66003;52.286;104.306;2024-01-15T11:24:01;97034.94;;;-7.11;34.02
77077;BME280;66003;52.286;104.306;2024-01-15T11:26:48;97034.03;;;-7.31;33.98
77077;BME280;66003;52.286;104.306;2024-01-15T11:32:10;97037.03;;;-7.68;34.68
77077;BME280;66003;52.286;104.306;2024-01-15T11:38:10;97046.53;;;-7.95;35.46
77077;BME280;66003;52.286;104.306;2024-01-15T11:40:44;97051.88;;;-8.03;35.71
77077;BME280;66003;52.286;104.306;2024-01-15T11:43:13;97051.66;;;-8.08;35.84
77077;BME280;66003;52.286;104.306;2024-01-15T11:45:44;97053.31;;;-8.22;35.94
77077;BME280;66003;52.286;104.306;2024-01-15T11:48:20;97056.19;;;-8.17;36.01
77077;BME280;66003;52.286;104.306;2024-01-15T11:50:49;97069.38;;;-8.32;36.05
77077;BME280;66003;52.286;104.306;2024-01-15T11:53:17;97074.34;;;-8.37;36.19
77077;BME280;66003;52.286;104.306;2024-01-15T11:55:46;97051.06;;;-8.47;36.14
77077;BME280;66003;52.286;104.306;2024-01-15T11:58:14;97066.84;;;-8.40;36.20
77077;BME280;66003;52.286;104.306;2024-01-15T12:04:34;97070.63;;;-8.64;36.69
77077;BME280;66003;52.286;104.306;2024-01-15T12:07:01;97078.22;;;-8.69;36.86
77077;BME280;66003;52.286;104.306;2024-01-15T12:09:27;97078.22;;;-8.69;36.92
77077;BME280;66003;52.286;104.306;2024-01-15T12:12:03;97078.41;;;-8.70;37.12
77077;BME280;66003;52.286;104.306;2024-01-15T12:14:33;97076.97;;;-8.73;36.70
77077;BME280;66003;52.286;104.306;2024-01-15T12:17:00;97079.94;;;-8.76;36.63
77077;BME280;66003;52.286;104.306;2024-01-15T12:19:26;97077.97;;;-8.74;36.77
77077;BME280;66003;52.286;104.306;2024-01-15T12:21:54;97067.84;;;-8.77;36.81
77077;BME280;66003;52.286;104.306;2024-01-15T12:24:39;97065.66;;;-8.73;36.91
77077;BME280;66003;52.286;104.306;2024-01-15T12:27:05;97062.25;;;-8.74;36.81
77077;BME280;66003;52.286;104.306;2024-01-15T12:29:31;97058.91;;;-8.68;36.74
77077;BME280;66003;52.286;104.306;2024-01-15T12:31:57;97056.69;;;-8.64;36.72
77077;BME280;66003;52.286;104.306;2024-01-15T12:34:53;97052.09;;;-8.62;36.79
77077;BME280;66003;52.286;104.306;2024-01-15T12:37:43;97059.59;;;-8.59;36.73
77077;BME280;66003;52.286;104.306;2024-01-15T12:45:25;97053.91;;;-8.63;37.23
77077;BME280;66003;52.286;104.306;2024-01-15T12:47:57;97054.41;;;-8.53;37.04
77077;BME280;66003;52.286;104.306;2024-01-15T12:50:24;97056.28;;;-8.68;36.73
77077;BME280;66003;52.286;104.306;2024-01-15T12:52:55;97056.13;;;-8.81;37.52
77077;BME280;66003;52.286;104.306;2024-01-15T12:55:24;97058.75;;;-8.81;37.37
77077;BME280;66003;52.286;104.306;2024-01-15T12:58:18;97057.28;;;-8.69;37.63
77077;BME280;66003;52.286;104.306;2024-01-15T13:01:45;97068.28;;;-8.73;37.47
77077;BME280;66003;52.286;104.306;2024-01-15T13:04:26;97055.81;;;-8.71;37.51
77077;BME280;66003;52.286;104.306;2024-01-15T13:06:56;97047.50;;;-8.75;37.44
77077;BME280;66003;52.286;104.306;2024-01-15T13:09:23;97045.53;;;-8.73;37.15
77077;BME280;66003;52.286;104.306;2024-01-15T13:11:50;97036.03;;;-8.74;37.43